N550GC MMGL-KTEB
Flight info
| Callsign | N550GC |
|---|---|
| Flight time | N/A |
| Altitude | 41000 |
| Route | FEISE1B FEISE J25 BRO DCT GLSLH DCT SBIRD DCT ZIROR DCT RUCBO DCT MEI DCT VUZ DCT BFOLO DCT LORNN DCT OJESS DCT BUFIY DCT ROA DCT PROSE DCT GVE JAIKE4 |
| Aircraft | GLF5/M-S/N |
Departure
| Time | 2026-04-27 18:35 |
|---|---|
| Airport | Guadalajara International Airport (MMGL) |
Arrival
| Time | N/A |
|---|---|
| Airport | Teterboro Airport (KTEB) |
| Time | Latitude | Longitude | Altitude | Speed | Heading |
|---|---|---|---|---|---|
| 2026-04-27 18:26 | 20.52715 | -103.29341 | 5022 ft | 0 kts | 246° |
| 2026-04-27 18:28 | 20.52715 | -103.29342 | 5022 ft | 0 kts | 248° |
| 2026-04-27 18:28 | 20.52714 | -103.29342 | 5022 ft | 0 kts | 249° |
| 2026-04-27 18:29 | 20.52713 | -103.29345 | 5022 ft | 1 kts | 247° |
| 2026-04-27 18:29 | 20.52713 | -103.29346 | 5022 ft | 2 kts | 246° |
| 2026-04-27 18:29 | 20.52693 | -103.29392 | 5022 ft | 12 kts | 245° |
| 2026-04-27 18:29 | 20.52657 | -103.29447 | 5022 ft | 5 kts | 204° |
| 2026-04-27 18:30 | 20.52635 | -103.29447 | 5022 ft | 2 kts | 171° |
| 2026-04-27 18:30 | 20.52596 | -103.29436 | 5022 ft | 12 kts | 160° |
| 2026-04-27 18:30 | 20.52483 | -103.29389 | 5022 ft | 23 kts | 159° |
| 2026-04-27 18:30 | 20.52365 | -103.29366 | 5022 ft | 12 kts | 196° |
| 2026-04-27 18:31 | 20.52311 | -103.29386 | 5022 ft | 10 kts | 199° |
| 2026-04-27 18:31 | 20.52213 | -103.29443 | 5022 ft | 15 kts | 218° |
| 2026-04-27 18:31 | 20.52134 | -103.29494 | 5022 ft | 17 kts | 203° |
| 2026-04-27 18:31 | 20.52058 | -103.29531 | 5022 ft | 7 kts | 205° |
| 2026-04-27 18:32 | 20.51952 | -103.29582 | 5022 ft | 5 kts | 202° |
| 2026-04-27 18:32 | 20.51935 | -103.29590 | 5022 ft | 6 kts | 205° |
| 2026-04-27 18:32 | 20.51861 | -103.29605 | 5022 ft | 14 kts | 142° |
| 2026-04-27 18:32 | 20.51782 | -103.29495 | 5022 ft | 24 kts | 126° |
| 2026-04-27 18:33 | 20.51673 | -103.29335 | 5022 ft | 24 kts | 125° |
| 2026-04-27 18:33 | 20.51579 | -103.29266 | 5022 ft | 11 kts | 197° |
| 2026-04-27 18:33 | 20.51519 | -103.29294 | 5022 ft | 10 kts | 204° |
| 2026-04-27 18:33 | 20.51474 | -103.29315 | 5022 ft | 11 kts | 204° |
| 2026-04-27 18:34 | 20.51450 | -103.29359 | 5022 ft | 7 kts | 287° |
| 2026-04-27 18:34 | 20.51505 | -103.29492 | 5022 ft | 56 kts | 293° |
| 2026-04-27 18:34 | 20.51798 | -103.30191 | 5022 ft | 149 kts | 294° |
| 2026-04-27 18:34 | 20.52328 | -103.31458 | 5304 ft | 220 kts | 293° |
| 2026-04-27 18:35 | 20.52972 | -103.32985 | 5819 ft | 231 kts | 294° |
| 2026-04-27 18:35 | 20.53665 | -103.34616 | 6546 ft | 251 kts | 294° |
| 2026-04-27 18:35 | 20.54394 | -103.36349 | 7290 ft | 261 kts | 293° |
| 2026-04-27 18:35 | 20.55140 | -103.38147 | 8026 ft | 268 kts | 293° |
| 2026-04-27 18:36 | 20.55952 | -103.39957 | 8750 ft | 275 kts | 301° |
| 2026-04-27 18:36 | 20.57310 | -103.41393 | 9483 ft | 280 kts | 326° |
| 2026-04-27 18:36 | 20.59143 | -103.42090 | 10214 ft | 284 kts | 352° |
| 2026-04-27 18:36 | 20.61142 | -103.41897 | 10961 ft | 299 kts | 16° |
| 2026-04-27 18:37 | 20.62996 | -103.40820 | 11705 ft | 313 kts | 40° |
| 2026-04-27 18:37 | 20.64377 | -103.38998 | 12448 ft | 323 kts | 63° |
| 2026-04-27 18:37 | 20.65034 | -103.36705 | 13190 ft | 328 kts | 85° |
| 2026-04-27 18:37 | 20.64954 | -103.34276 | 13931 ft | 331 kts | 100° |
| 2026-04-27 18:38 | 20.64508 | -103.31860 | 14653 ft | 333 kts | 106° |
| 2026-04-27 18:38 | 20.63915 | -103.29465 | 15367 ft | 335 kts | 108° |
| 2026-04-27 18:38 | 20.63263 | -103.27065 | 16071 ft | 339 kts | 109° |
| 2026-04-27 18:38 | 20.62613 | -103.24630 | 16780 ft | 344 kts | 108° |
| 2026-04-27 18:39 | 20.62025 | -103.22149 | 17474 ft | 349 kts | 104° |
| 2026-04-27 18:39 | 20.61662 | -103.19577 | 18046 ft | 354 kts | 92° |
| 2026-04-27 18:39 | 20.62076 | -103.16983 | 18705 ft | 359 kts | 72° |
| 2026-04-27 18:39 | 20.63185 | -103.14577 | 19361 ft | 365 kts | 59° |
| 2026-04-27 18:40 | 20.64642 | -103.12355 | 19934 ft | 370 kts | 52° |
| 2026-04-27 18:40 | 20.66294 | -103.10233 | 20582 ft | 374 kts | 49° |
| 2026-04-27 18:40 | 20.68047 | -103.08159 | 21232 ft | 378 kts | 47° |
| 2026-04-27 18:40 | 20.69853 | -103.06094 | 21883 ft | 383 kts | 46° |
| 2026-04-27 18:41 | 20.71668 | -103.04012 | 22534 ft | 387 kts | 47° |
| 2026-04-27 18:41 | 20.73488 | -103.01874 | 23186 ft | 391 kts | 48° |
| 2026-04-27 18:41 | 20.75281 | -102.99667 | 23839 ft | 396 kts | 49° |
| 2026-04-27 18:41 | 20.77016 | -102.97365 | 24442 ft | 402 kts | 52° |
| 2026-04-27 18:42 | 20.78672 | -102.94976 | 24985 ft | 404 kts | 52° |
| 2026-04-27 18:42 | 20.79821 | -102.93384 | 25448 ft | 407 kts | 51° |
| 2026-04-27 18:42 | 20.82207 | -102.90230 | 26354 ft | 413 kts | 49° |
| 2026-04-27 18:42 | 20.84066 | -102.87864 | 26912 ft | 418 kts | 49° |
| 2026-04-27 18:43 | 20.85935 | -102.85479 | 27315 ft | 422 kts | 49° |
| 2026-04-27 18:43 | 20.87800 | -102.83044 | 27867 ft | 425 kts | 50° |
| 2026-04-27 18:43 | 20.89660 | -102.80567 | 28494 ft | 430 kts | 50° |
| 2026-04-27 18:43 | 20.91525 | -102.78053 | 29124 ft | 434 kts | 50° |
| 2026-04-27 18:44 | 20.93409 | -102.75531 | 29731 ft | 439 kts | 50° |
| 2026-04-27 18:44 | 20.95328 | -102.72971 | 30287 ft | 444 kts | 50° |
| 2026-04-27 18:44 | 20.97268 | -102.70382 | 30787 ft | 448 kts | 50° |
| 2026-04-27 18:44 | 20.99209 | -102.67758 | 31306 ft | 452 kts | 50° |
| 2026-04-27 18:45 | 21.01155 | -102.65116 | 31664 ft | 455 kts | 50° |
| 2026-04-27 18:45 | 21.03129 | -102.62449 | 32188 ft | 459 kts | 50° |
| 2026-04-27 18:45 | 21.05118 | -102.59761 | 32739 ft | 463 kts | 50° |
| 2026-04-27 18:45 | 21.07121 | -102.57048 | 33281 ft | 467 kts | 49° |
| 2026-04-27 18:46 | 21.09134 | -102.54307 | 33732 ft | 472 kts | 49° |
| 2026-04-27 18:46 | 21.11165 | -102.51531 | 34193 ft | 476 kts | 49° |
| 2026-04-27 18:46 | 21.13216 | -102.48721 | 34675 ft | 481 kts | 49° |
| 2026-04-27 18:46 | 21.15296 | -102.45894 | 35106 ft | 485 kts | 49° |
| 2026-04-27 18:47 | 21.17390 | -102.43058 | 35546 ft | 490 kts | 49° |
| 2026-04-27 18:47 | 21.19512 | -102.40184 | 35962 ft | 494 kts | 50° |
| 2026-04-27 18:47 | 21.21654 | -102.37287 | 36321 ft | 498 kts | 49° |
| 2026-04-27 18:47 | 21.23803 | -102.34357 | 36756 ft | 502 kts | 48° |
| 2026-04-27 18:48 | 21.25955 | -102.31411 | 37176 ft | 507 kts | 48° |
| 2026-04-27 18:48 | 21.28132 | -102.28423 | 37584 ft | 510 kts | 49° |
| 2026-04-27 18:48 | 21.30320 | -102.25413 | 38019 ft | 515 kts | 48° |
| 2026-04-27 18:48 | 21.32527 | -102.22367 | 38404 ft | 520 kts | 48° |
| 2026-04-27 18:49 | 21.34743 | -102.19312 | 38788 ft | 523 kts | 48° |
| 2026-04-27 18:49 | 21.36989 | -102.16231 | 39148 ft | 526 kts | 47° |
| 2026-04-27 18:49 | 21.39248 | -102.13135 | 39496 ft | 528 kts | 47° |
| 2026-04-27 18:49 | 21.41513 | -102.10025 | 39875 ft | 530 kts | 47° |
| 2026-04-27 18:50 | 21.43768 | -102.06916 | 40230 ft | 531 kts | 47° |
| 2026-04-27 18:50 | 21.46028 | -102.03787 | 40606 ft | 530 kts | 47° |
| 2026-04-27 18:50 | 21.48284 | -102.00658 | 40970 ft | 530 kts | 47° |
| 2026-04-27 18:50 | 21.50546 | -101.97526 | 41151 ft | 533 kts | 47° |
| 2026-04-27 18:51 | 21.52813 | -101.94379 | 41271 ft | 537 kts | 47° |
| 2026-04-27 18:51 | 21.55106 | -101.91195 | 41265 ft | 542 kts | 47° |
| 2026-04-27 18:51 | 21.59743 | -101.84759 | 41247 ft | 548 kts | 47° |
| 2026-04-27 18:52 | 21.64418 | -101.78278 | 41264 ft | 551 kts | 47° |
| 2026-04-27 18:53 | 21.71480 | -101.68532 | 41274 ft | 552 kts | 47° |
| 2026-04-27 18:53 | 21.76204 | -101.62023 | 41278 ft | 552 kts | 47° |
| 2026-04-27 18:54 | 21.80896 | -101.55503 | 41291 ft | 553 kts | 47° |
| 2026-04-27 18:54 | 21.84848 | -101.50067 | 41299 ft | 553 kts | 47° |
| 2026-04-27 18:55 | 21.89556 | -101.43544 | 41286 ft | 554 kts | 47° |
| 2026-04-27 18:55 | 21.94269 | -101.36983 | 41284 ft | 554 kts | 47° |
| 2026-04-27 18:56 | 21.98941 | -101.30416 | 41297 ft | 552 kts | 48° |
| 2026-04-27 18:56 | 22.03612 | -101.23862 | 41298 ft | 551 kts | 47° |
| 2026-04-27 18:57 | 22.08267 | -101.17314 | 41294 ft | 551 kts | 47° |
| 2026-04-27 18:57 | 22.12950 | -101.10780 | 41298 ft | 551 kts | 47° |
| 2026-04-27 18:58 | 22.17610 | -101.04238 | 41299 ft | 551 kts | 47° |
| 2026-04-27 18:58 | 22.22299 | -100.97692 | 41299 ft | 552 kts | 47° |
| 2026-04-27 18:59 | 22.26935 | -100.91121 | 41299 ft | 552 kts | 48° |
| 2026-04-27 18:59 | 22.31339 | -100.84340 | 41299 ft | 554 kts | 51° |
| 2026-04-27 19:00 | 22.35608 | -100.77388 | 41299 ft | 557 kts | 51° |
| 2026-04-27 19:00 | 22.39834 | -100.70374 | 41298 ft | 558 kts | 52° |
| 2026-04-27 19:01 | 22.44040 | -100.63348 | 41300 ft | 558 kts | 52° |
| 2026-04-27 19:01 | 22.48312 | -100.56358 | 41300 ft | 557 kts | 51° |
| 2026-04-27 19:02 | 22.52645 | -100.49439 | 41300 ft | 557 kts | 51° |
| 2026-04-27 19:02 | 22.56960 | -100.42483 | 41300 ft | 557 kts | 51° |
| 2026-04-27 19:03 | 22.61264 | -100.35523 | 41300 ft | 558 kts | 51° |
| 2026-04-27 19:03 | 22.65519 | -100.28516 | 41297 ft | 559 kts | 51° |
| 2026-04-27 19:04 | 22.69749 | -100.21460 | 41274 ft | 559 kts | 51° |
| 2026-04-27 19:04 | 22.73959 | -100.14369 | 41200 ft | 560 kts | 52° |
| 2026-04-27 19:05 | 22.78146 | -100.07268 | 41096 ft | 561 kts | 52° |
| 2026-04-27 19:05 | 22.82334 | -100.00139 | 41047 ft | 561 kts | 52° |
| 2026-04-27 19:06 | 22.86514 | -99.93012 | 41046 ft | 562 kts | 52° |
| 2026-04-27 19:06 | 22.90707 | -99.85862 | 41052 ft | 562 kts | 52° |
| 2026-04-27 19:07 | 22.94900 | -99.78709 | 40859 ft | 564 kts | 52° |
| 2026-04-27 19:07 | 22.97000 | -99.75124 | 40736 ft | 564 kts | 52° |
| 2026-04-27 19:07 | 22.99103 | -99.71533 | 40623 ft | 564 kts | 52° |
| 2026-04-27 19:07 | 23.01196 | -99.67958 | 40519 ft | 564 kts | 52° |
| 2026-04-27 19:08 | 23.03302 | -99.64367 | 40410 ft | 564 kts | 52° |
| 2026-04-27 19:08 | 23.05411 | -99.60775 | 40292 ft | 564 kts | 52° |
| 2026-04-27 19:08 | 23.07522 | -99.57185 | 40186 ft | 565 kts | 52° |
| 2026-04-27 19:09 | 23.11746 | -99.50020 | 40065 ft | 565 kts | 52° |
| 2026-04-27 19:09 | 23.15984 | -99.42848 | 40060 ft | 564 kts | 52° |
| 2026-04-27 19:10 | 23.20201 | -99.35706 | 40180 ft | 561 kts | 52° |
| 2026-04-27 19:10 | 23.22301 | -99.32142 | 40290 ft | 560 kts | 52° |
| 2026-04-27 19:10 | 23.24388 | -99.28596 | 40408 ft | 558 kts | 52° |
| 2026-04-27 19:11 | 23.28553 | -99.21497 | 40609 ft | 556 kts | 52° |
| 2026-04-27 19:11 | 23.32720 | -99.14401 | 40618 ft | 558 kts | 52° |
| 2026-04-27 19:12 | 23.36889 | -99.07312 | 40504 ft | 558 kts | 52° |
| 2026-04-27 19:12 | 23.41080 | -99.00201 | 40285 ft | 559 kts | 52° |
| 2026-04-27 19:12 | 23.43172 | -98.96658 | 40102 ft | 559 kts | 52° |
| 2026-04-27 19:13 | 23.45278 | -98.93098 | 39910 ft | 559 kts | 52° |
| 2026-04-27 19:13 | 23.47388 | -98.89540 | 39738 ft | 559 kts | 52° |
| 2026-04-27 19:13 | 23.49500 | -98.85984 | 39619 ft | 559 kts | 52° |
| 2026-04-27 19:14 | 23.53726 | -98.78891 | 39540 ft | 560 kts | 52° |
| 2026-04-27 19:14 | 23.57967 | -98.71782 | 39584 ft | 560 kts | 52° |
| 2026-04-27 19:15 | 23.62179 | -98.64679 | 39647 ft | 559 kts | 52° |
| 2026-04-27 19:15 | 23.66382 | -98.57560 | 39778 ft | 557 kts | 52° |
| 2026-04-27 19:16 | 23.70550 | -98.50473 | 39982 ft | 555 kts | 52° |
| 2026-04-27 19:16 | 23.74699 | -98.43390 | 40187 ft | 553 kts | 52° |
| 2026-04-27 19:17 | 23.78838 | -98.36336 | 40328 ft | 553 kts | 52° |
| 2026-04-27 19:17 | 23.83020 | -98.29280 | 40387 ft | 554 kts | 52° |
| 2026-04-27 19:18 | 23.87214 | -98.22238 | 40324 ft | 555 kts | 52° |
| 2026-04-27 19:18 | 23.91428 | -98.15178 | 40215 ft | 555 kts | 52° |
| 2026-04-27 19:19 | 23.95346 | -98.08624 | 40153 ft | 556 kts | 52° |
| 2026-04-27 19:19 | 23.97651 | -98.05276 | 40184 ft | 546 kts | 41° |
| 2026-04-27 19:19 | 24.00512 | -98.02667 | 40378 ft | 528 kts | 27° |
| 2026-04-27 19:19 | 24.03724 | -98.00913 | 40677 ft | 514 kts | 17° |
| 2026-04-27 19:20 | 24.06191 | -97.99667 | 40808 ft | 517 kts | 21° |
| 2026-04-27 19:20 | 24.10621 | -97.96844 | 40935 ft | 523 kts | 26° |
| 2026-04-27 19:21 | 24.16672 | -97.92342 | 40926 ft | 530 kts | 29° |
| 2026-04-27 19:21 | 24.22660 | -97.87587 | 40923 ft | 534 kts | 31° |
| 2026-04-27 19:22 | 24.28594 | -97.82695 | 40850 ft | 537 kts | 31° |
| 2026-04-27 19:22 | 24.34545 | -97.77728 | 40819 ft | 538 kts | 32° |
| 2026-04-27 19:23 | 24.40483 | -97.72753 | 40822 ft | 538 kts | 31° |
| 2026-04-27 19:23 | 24.46416 | -97.67766 | 40851 ft | 536 kts | 31° |
| 2026-04-27 19:24 | 24.52311 | -97.62803 | 40858 ft | 535 kts | 31° |
| 2026-04-27 19:24 | 24.58208 | -97.57833 | 40862 ft | 535 kts | 31° |
| 2026-04-27 19:25 | 24.64099 | -97.52865 | 40864 ft | 535 kts | 31° |
| 2026-04-27 19:25 | 24.70011 | -97.47882 | 40865 ft | 536 kts | 31° |
| 2026-04-27 19:26 | 24.75918 | -97.42905 | 40865 ft | 536 kts | 31° |
| 2026-04-27 19:26 | 24.81845 | -97.37926 | 40865 ft | 536 kts | 32° |
| 2026-04-27 19:27 | 24.87770 | -97.32983 | 40866 ft | 535 kts | 31° |
| 2026-04-27 19:27 | 24.93711 | -97.28042 | 40866 ft | 535 kts | 31° |
| 2026-04-27 19:28 | 24.99635 | -97.23110 | 40866 ft | 535 kts | 32° |
| 2026-04-27 19:28 | 25.05571 | -97.18153 | 40865 ft | 536 kts | 31° |
| 2026-04-27 19:29 | 25.11493 | -97.13194 | 40873 ft | 535 kts | 32° |
| 2026-04-27 19:29 | 25.17386 | -97.08176 | 40879 ft | 535 kts | 32° |
| 2026-04-27 19:30 | 25.23253 | -97.03146 | 40879 ft | 535 kts | 32° |
| 2026-04-27 19:30 | 25.29128 | -96.98102 | 40879 ft | 536 kts | 32° |
| 2026-04-27 19:31 | 25.35007 | -96.93057 | 40879 ft | 536 kts | 32° |
| 2026-04-27 19:31 | 25.40903 | -96.88002 | 40879 ft | 537 kts | 32° |
| 2026-04-27 19:32 | 25.46792 | -96.82955 | 40879 ft | 537 kts | 32° |
| 2026-04-27 19:32 | 25.52701 | -96.77894 | 40879 ft | 538 kts | 32° |
| 2026-04-27 19:33 | 25.58603 | -96.72842 | 40879 ft | 538 kts | 32° |
| 2026-04-27 19:33 | 25.64522 | -96.67791 | 40879 ft | 537 kts | 32° |
| 2026-04-27 19:34 | 25.70432 | -96.62764 | 40879 ft | 537 kts | 32° |
| 2026-04-27 19:34 | 25.76359 | -96.57729 | 40878 ft | 537 kts | 32° |
| 2026-04-27 19:35 | 25.82257 | -96.52677 | 40879 ft | 538 kts | 33° |
| 2026-04-27 19:35 | 25.88148 | -96.47560 | 40879 ft | 538 kts | 33° |
| 2026-04-27 19:36 | 25.93504 | -96.42887 | 40879 ft | 539 kts | 33° |
| 2026-04-27 19:36 | 25.99397 | -96.37741 | 40879 ft | 539 kts | 33° |
| 2026-04-27 19:37 | 26.05280 | -96.32605 | 40879 ft | 539 kts | 33° |
| 2026-04-27 19:37 | 26.11182 | -96.27454 | 40879 ft | 540 kts | 33° |
| 2026-04-27 19:38 | 26.17077 | -96.22311 | 40878 ft | 540 kts | 33° |
| 2026-04-27 19:38 | 26.22987 | -96.17179 | 40879 ft | 539 kts | 33° |
| 2026-04-27 19:39 | 26.28892 | -96.12067 | 40879 ft | 539 kts | 32° |
| 2026-04-27 19:39 | 26.34810 | -96.06930 | 40879 ft | 540 kts | 33° |
| 2026-04-27 19:40 | 26.40714 | -96.01792 | 40879 ft | 540 kts | 33° |
| 2026-04-27 19:40 | 26.46627 | -95.96645 | 40882 ft | 539 kts | 33° |
| 2026-04-27 19:41 | 26.52523 | -95.91515 | 40886 ft | 539 kts | 33° |
| 2026-04-27 19:41 | 26.58434 | -95.86372 | 40892 ft | 539 kts | 33° |
| 2026-04-27 19:42 | 26.64346 | -95.81233 | 40897 ft | 540 kts | 32° |
| 2026-04-27 19:42 | 26.70271 | -95.76082 | 40897 ft | 540 kts | 32° |
| 2026-04-27 19:43 | 26.76182 | -95.70929 | 40901 ft | 540 kts | 33° |
| 2026-04-27 19:43 | 26.82086 | -95.65736 | 40903 ft | 540 kts | 32° |
| 2026-04-27 19:44 | 26.87982 | -95.60555 | 40901 ft | 540 kts | 32° |
| 2026-04-27 19:44 | 26.93891 | -95.55367 | 40904 ft | 540 kts | 32° |
| 2026-04-27 19:45 | 26.99788 | -95.50191 | 40904 ft | 540 kts | 32° |
| 2026-04-27 19:45 | 27.05701 | -95.45001 | 40904 ft | 540 kts | 32° |
| 2026-04-27 19:46 | 27.11583 | -95.39801 | 40924 ft | 539 kts | 33° |
| 2026-04-27 19:46 | 27.17440 | -95.34543 | 40945 ft | 539 kts | 33° |
| 2026-04-27 19:47 | 27.23277 | -95.29276 | 40951 ft | 540 kts | 33° |
| 2026-04-27 19:47 | 27.29116 | -95.24000 | 40946 ft | 540 kts | 33° |
| 2026-04-27 19:48 | 27.34982 | -95.18727 | 40949 ft | 541 kts | 33° |
| 2026-04-27 19:48 | 27.40854 | -95.13445 | 40956 ft | 541 kts | 33° |
| 2026-04-27 19:49 | 27.46717 | -95.08172 | 40954 ft | 541 kts | 33° |
| 2026-04-27 19:49 | 27.52598 | -95.02883 | 40957 ft | 541 kts | 33° |
| 2026-04-27 19:50 | 27.58466 | -94.97609 | 40959 ft | 541 kts | 33° |
| 2026-04-27 19:50 | 27.64351 | -94.92322 | 40955 ft | 541 kts | 33° |
| 2026-04-27 19:51 | 27.69240 | -94.87912 | 40965 ft | 541 kts | 33° |
| 2026-04-27 19:51 | 27.75067 | -94.82573 | 40969 ft | 541 kts | 34° |
| 2026-04-27 19:52 | 27.80886 | -94.77192 | 40967 ft | 541 kts | 34° |
| 2026-04-27 19:52 | 27.86689 | -94.71806 | 40968 ft | 541 kts | 34° |
| 2026-04-27 19:53 | 27.95400 | -94.63702 | 40969 ft | 541 kts | 34° |
| 2026-04-27 19:53 | 28.01186 | -94.58304 | 40969 ft | 541 kts | 34° |
| 2026-04-27 19:54 | 28.06953 | -94.52827 | 40969 ft | 542 kts | 34° |
| 2026-04-27 19:54 | 28.12699 | -94.47325 | 40968 ft | 542 kts | 34° |
| 2026-04-27 19:55 | 28.18454 | -94.41801 | 40968 ft | 542 kts | 35° |